Time;durP1;ratioP1;P1;durP2;ratioP2;P2;SDS_P1;SDS_P2;PMS_P1;PMS_P2;Temp;Humidity;BMP_temperature;BMP_pressure;BME280_temperature;BME280_humidity;BME280_pressure;Samples;Min_cycle;Max_cycle;Signal;HPM_P1;HPM_P2
2022/01/28 00:01:26;;;;;;;18.60;8.40;;;;;;;2.31;100.00;98868.50;4191372;28;20228;-72
2022/01/28 00:04:01;;;;;;;16.73;8.17;;;;;;;2.40;100.00;98853.75;4195964;28;25538;-72
2022/01/28 00:06:27;;;;;;;16.80;6.57;;;;;;;2.42;100.00;98859.69;4181279;28;20284;-70
2022/01/28 00:08:54;;;;;;;26.87;7.53;;;;;;;2.41;100.00;98860.69;4214135;28;20264;-69
2022/01/28 00:11:20;;;;;;;22.17;8.10;;;;;;;2.47;100.00;98861.94;4174173;28;21025;-71
2022/01/28 00:13:54;;;;;;;18.40;7.77;;;;;;;2.55;100.00;98862.09;4197068;28;20277;-70
2022/01/28 00:19:04;;;;;;;22.07;8.60;;;;;;;2.51;100.00;98860.72;4188005;28;23654;-68
2022/01/28 00:38:08;;;;;;;17.00;6.80;;;;;;;2.34;100.00;98846.38;4192028;28;20241;-70
2022/01/28 00:40:35;;;;;;;15.33;5.80;;;;;;;2.24;100.00;98842.91;4155035;28;20234;-70
2022/01/28 00:43:03;;;;;;;13.23;5.27;;;;;;;2.20;100.00;98844.13;4201928;28;20230;-70
2022/01/28 00:45:30;;;;;;;12.17;5.13;;;;;;;2.22;100.00;98850.91;4154441;28;20240;-70
2022/01/28 00:47:57;;;;;;;15.23;5.43;;;;;;;2.21;100.00;98844.00;4183009;28;20240;-70
2022/01/28 00:50:23;;;;;;;17.67;4.90;;;;;;;2.21;100.00;98837.94;4165636;28;20280;-69
2022/01/28 00:52:51;;;;;;;14.00;5.20;;;;;;;2.17;100.00;98852.25;4183793;28;20289;-69
2022/01/28 00:55:17;;;;;;;16.73;5.10;;;;;;;2.11;100.00;98833.47;4193217;28;20336;-70
2022/01/28 00:57:44;;;;;;;12.17;4.87;;;;;;;2.05;100.00;98835.78;4159032;28;20808;-73
2022/01/28 01:00:12;;;;;;;11.70;4.63;;;;;;;2.04;100.00;98831.50;4176177;28;20295;-69
2022/01/28 01:02:39;;;;;;;8.57;4.43;;;;;;;2.02;100.00;98838.66;4180720;28;20229;-71
2022/01/28 01:05:06;;;;;;;10.77;4.20;;;;;;;2.03;100.00;98835.88;4158529;28;21400;-69
2022/01/28 01:07:33;;;;;;;13.40;4.13;;;;;;;1.99;100.00;98831.88;4170871;28;20320;-70
2022/01/28 01:10:00;;;;;;;14.27;4.70;;;;;;;1.98;100.00;98821.50;4180837;28;22148;-69
2022/01/28 01:12:29;;;;;;;7.50;3.40;;;;;;;1.97;100.00;98819.88;4179191;28;20316;-68
2022/01/28 01:14:56;;;;;;;12.23;3.70;;;;;;;2.01;100.00;98808.13;4192643;28;20242;-69
2022/01/28 01:20:04;;;;;;;13.47;3.80;;;;;;;1.98;100.00;98803.97;4157930;28;20289;-70
2022/01/28 01:22:37;;;;;;;10.67;3.03;;;;;;;1.93;100.00;98803.53;4170569;28;20231;-69
2022/01/28 01:25:14;;;;;;;11.73;3.07;;;;;;;1.94;99.66;98789.44;4174055;28;20241;-70
2022/01/28 01:27:42;;;;;;;17.50;3.43;;;;;;;2.00;98.69;98773.19;4174819;28;20434;-70
2022/01/28 01:30:09;;;;;;;9.07;3.00;;;;;;;2.02;98.25;98775.69;4172311;28;20300;-69
2022/01/28 01:32:35;;;;;;;11.60;2.90;;;;;;;1.99;98.50;98778.56;4167223;28;21868;-69
2022/01/28 01:35:04;;;;;;;8.67;2.43;;;;;;;1.99;97.74;98766.31;4172004;28;20224;-70
2022/01/28 01:37:31;;;;;;;9.63;2.40;;;;;;;2.04;96.90;98760.66;4154630;28;20243;-69
2022/01/28 01:39:58;;;;;;;6.57;2.43;;;;;;;2.03;97.05;98761.63;4167574;28;20252;-70
2022/01/28 01:53:26;;;;;;;7.33;2.00;;;;;;;2.13;95.31;98735.41;4173251;28;21978;-70
2022/01/28 01:55:52;;;;;;;8.27;1.97;;;;;;;2.12;95.25;98731.97;4169484;28;21613;-72
2022/01/28 01:58:25;;;;;;;13.00;2.30;;;;;;;2.11;95.19;98733.75;4162287;28;20227;-71
2022/01/28 02:00:51;;;;;;;9.43;2.83;;;;;;;2.13;95.01;98733.63;4171535;28;22856;-71
2022/01/28 02:03:18;;;;;;;6.70;2.03;;;;;;;2.09;95.54;98730.44;4171603;28;20231;-70
2022/01/28 02:05:45;;;;;;;7.43;2.60;;;;;;;2.11;95.79;98722.44;4168920;28;20383;-70
2022/01/28 02:08:12;;;;;;;7.43;2.40;;;;;;;2.16;95.29;98719.41;4161053;28;20232;-70
2022/01/28 02:10:38;;;;;;;12.37;3.20;;;;;;;2.11;96.25;98697.03;4181523;28;20719;-72
2022/01/28 02:13:05;;;;;;;7.90;2.80;;;;;;;2.13;96.42;98703.91;4169034;28;20303;-71
2022/01/28 02:15:31;;;;;;;9.07;3.30;;;;;;;2.10;96.19;98716.34;4166140;28;20329;-69
2022/01/28 02:17:59;;;;;;;6.43;2.77;;;;;;;2.12;96.32;98695.22;4150918;28;20295;-69
2022/01/28 02:20:31;;;;;;;7.00;2.63;;;;;;;2.08;97.01;98696.44;4170870;28;20240;-70
2022/01/28 02:22:58;;;;;;;15.60;3.40;;;;;;;2.05;97.84;98688.84;4171030;28;21831;-72
2022/01/28 02:25:27;;;;;;;10.80;3.20;;;;;;;2.02;98.58;98671.59;4193907;28;21027;-70
2022/01/28 02:27:57;;;;;;;7.20;3.17;;;;;;;2.05;98.43;98686.22;4171517;28;20228;-70
2022/01/28 02:30:24;;;;;;;8.97;3.10;;;;;;;2.07;98.43;98679.88;4175941;28;20232;-70
2022/01/28 02:32:56;;;;;;;9.67;3.40;;;;;;;2.04;99.24;98677.53;4179426;28;21245;-70
2022/01/28 02:35:23;;;;;;;12.93;3.67;;;;;;;2.01;100.00;98669.91;4169163;28;20294;-70
2022/01/28 02:37:49;;;;;;;12.33;3.70;;;;;;;1.94;100.00;98673.22;4180362;28;20331;-72
2022/01/28 02:40:16;;;;;;;7.33;3.07;;;;;;;1.91;100.00;98669.06;4180225;28;20234;-70
2022/01/28 02:42:54;;;;;;;9.87;3.07;;;;;;;1.84;100.00;98667.94;4173210;28;21613;-71
2022/01/28 02:45:36;;;;;;;10.53;3.00;;;;;;;1.74;100.00;98678.41;4164583;28;20244;-71
2022/01/28 02:48:13;;;;;;;7.90;2.90;;;;;;;1.69;100.00;98684.03;4166070;28;20239;-73
2022/01/28 02:51:04;;;;;;;8.90;2.47;;;;;;;1.63;100.00;98665.38;4176060;28;20295;-71
2022/01/28 02:53:37;;;;;;;10.73;2.53;;;;;;;1.54;100.00;98664.38;4163204;28;20234;-72
2022/01/28 02:56:16;;;;;;;7.93;2.30;;;;;;;1.53;100.00;98667.16;4170404;28;20326;-71
2022/01/28 02:58:44;;;;;;;11.97;2.23;;;;;;;1.44;100.00;98666.13;4152909;28;20505;-71
2022/01/28 03:01:15;;;;;;;14.70;2.30;;;;;;;1.42;100.00;98673.28;4175354;28;21666;-70
2022/01/28 03:03:43;;;;;;;11.83;2.67;;;;;;;1.37;100.00;98667.63;4179122;28;20246;-71
2022/01/28 03:06:14;;;;;;;11.47;2.67;;;;;;;1.37;100.00;98646.66;4172728;28;20315;-72
2022/01/28 03:08:45;;;;;;;11.63;2.67;;;;;;;1.31;100.00;98649.78;4170421;28;21907;-73
2022/01/28 03:19:42;;;;;;;9.60;3.27;;;;;;;1.31;100.00;98639.31;4164987;28;20339;-69
2022/01/28 03:22:08;;;;;;;13.40;3.00;;;;;;;1.30;100.00;98635.84;4184784;28;20328;-69
2022/01/28 03:24:35;;;;;;;8.63;3.13;;;;;;;1.23;100.00;98634.72;4173421;28;20244;-70
2022/01/28 03:27:08;;;;;;;11.83;3.50;;;;;;;1.20;100.00;98630.56;4173593;28;20242;-71
2022/01/28 03:29:34;;;;;;;15.93;3.43;;;;;;;1.15;100.00;98640.63;4162221;28;20257;-71
2022/01/28 03:32:01;;;;;;;13.77;3.90;;;;;;;1.11;100.00;98646.25;4178729;28;23174;-71
2022/01/28 03:34:27;;;;;;;13.60;4.27;;;;;;;1.13;100.00;98649.56;4176982;28;20237;-72
2022/01/28 03:36:56;;;;;;;14.93;4.43;;;;;;;1.15;100.00;98639.78;4177746;28;20389;-72
2022/01/28 03:39:23;;;;;;;18.07;4.43;;;;;;;1.18;100.00;98652.63;4169729;28;20305;-71
2022/01/28 03:41:49;;;;;;;10.73;3.90;;;;;;;1.15;100.00;98651.09;4187845;28;20242;-72
2022/01/28 03:44:16;;;;;;;12.10;4.03;;;;;;;1.16;100.00;98657.97;4175034;28;23089;-70
2022/01/28 03:46:43;;;;;;;14.93;3.50;;;;;;;1.18;100.00;98661.31;4183907;28;21782;-71
2022/01/28 03:49:09;;;;;;;13.23;3.17;;;;;;;1.15;100.00;98639.78;4155381;28;23754;-70
2022/01/28 03:51:36;;;;;;;13.23;3.50;;;;;;;1.15;100.00;98643.25;4164644;28;24078;-71
2022/01/28 03:54:03;;;;;;;13.10;3.37;;;;;;;1.11;100.00;98639.22;4166701;28;21237;-71
2022/01/28 03:56:30;;;;;;;9.87;3.37;;;;;;;1.10;100.00;98642.81;4174497;28;20244;-71
2022/01/28 03:58:56;;;;;;;14.17;3.30;;;;;;;1.10;100.00;98645.41;4158022;28;22350;-70
2022/01/28 04:01:29;;;;;;;16.03;3.43;;;;;;;1.10;100.00;98636.72;4164296;28;21259;-73
2022/01/28 04:11:56;;;;;;;9.80;3.20;;;;;;;1.14;100.00;98638.94;4173130;28;20241;-71
2022/01/28 04:19:40;;;;;;;12.17;3.13;;;;;;;1.08;100.00;98639.47;4181757;28;20714;-69
2022/01/28 04:22:07;;;;;;;8.87;3.00;;;;;;;1.06;100.00;98646.63;4173664;28;20770;-71
2022/01/28 04:24:34;;;;;;;10.83;2.93;;;;;;;1.09;100.00;98656.84;4190706;28;20246;-72
2022/01/28 04:27:00;;;;;;;10.23;2.83;;;;;;;1.07;100.00;98648.28;4167565;28;20761;-69
2022/01/28 04:29:27;;;;;;;8.90;3.00;;;;;;;1.03;100.00;98652.97;4172467;28;20238;-70
2022/01/28 04:31:53;;;;;;;9.23;3.30;;;;;;;1.02;100.00;98653.06;4195860;28;20338;-71
2022/01/28 04:34:22;;;;;;;11.50;2.83;;;;;;;0.99;100.00;98656.78;4164959;28;21719;-71
2022/01/28 04:39:43;;;;;;;15.47;3.63;;;;;;;1.03;100.00;98663.44;4162215;28;20236;-72
2022/01/28 04:42:23;;;;;;;15.93;3.90;;;;;;;1.04;100.00;98659.84;4191135;28;20686;-71
2022/01/28 04:47:47;;;;;;;11.17;3.70;;;;;;;1.06;100.00;98670.19;4161372;28;20234;-69
2022/01/28 04:58:00;;;;;;;12.83;4.33;;;;;;;1.14;100.00;98665.13;4178581;28;21002;-69
2022/01/28 05:14:36;;;;;;;5.43;2.67;;;;;;;1.26;100.00;98685.09;4177813;28;20243;-70
2022/01/28 05:23:05;;;;;;;6.70;2.60;;;;;;;1.31;100.00;98692.56;4164056;28;20228;-69
2022/01/28 05:27:48;;;;;;;10.80;3.00;;;;;;;1.54;100.00;98701.06;4157079;28;20229;-71
2022/01/28 05:30:14;;;;;;;7.87;2.97;;;;;;;1.53;100.00;98703.84;4165104;28;20243;-71
2022/01/28 05:32:42;;;;;;;9.93;2.50;;;;;;;1.58;100.00;98715.59;4171397;28;20235;-72
2022/01/28 05:35:09;;;;;;;7.23;2.57;;;;;;;1.57;100.00;98719.19;4166008;28;20242;-71
2022/01/28 05:37:35;;;;;;;7.13;2.00;;;;;;;1.64;100.00;98715.06;4171063;28;20236;-71
2022/01/28 05:40:03;;;;;;;4.40;1.90;;;;;;;1.64;100.00;98714.25;4167875;28;20468;-72
2022/01/28 05:42:29;;;;;;;6.20;1.87;;;;;;;1.65;100.00;98727.22;4174275;28;20237;-71
2022/01/28 05:44:56;;;;;;;8.33;3.20;;;;;;;1.73;100.00;98736.22;4155465;28;24291;-71
2022/01/28 05:47:24;;;;;;;6.27;1.67;;;;;;;1.75;100.00;98731.69;4167413;28;20363;-70
2022/01/28 05:49:51;;;;;;;4.23;1.70;;;;;;;1.76;100.00;98744.66;4169551;28;20714;-71
2022/01/28 05:52:17;;;;;;;5.90;1.70;;;;;;;1.73;100.00;98739.66;4156047;28;21502;-72
2022/01/28 05:54:44;;;;;;;4.53;1.70;;;;;;;1.75;100.00;98744.78;4178913;28;20308;-72
2022/01/28 05:57:11;;;;;;;3.40;1.90;;;;;;;1.78;100.00;98745.38;4154699;28;20242;-72
2022/01/28 05:59:38;;;;;;;6.40;1.97;;;;;;;1.78;100.00;98741.88;4161306;28;20233;-73
2022/01/28 06:02:04;;;;;;;6.87;1.60;;;;;;;1.80;100.00;98740.81;4171647;28;20230;-73
2022/01/28 06:04:31;;;;;;;4.83;1.50;;;;;;;1.78;100.00;98758.47;4180905;28;20248;-74
2022/01/28 06:06:57;;;;;;;3.47;1.63;;;;;;;1.80;100.00;98746.06;4174687;28;21032;-71
2022/01/28 06:09:24;;;;;;;6.13;1.97;;;;;;;1.80;100.00;98756.56;4160319;28;20236;-70
2022/01/28 06:11:51;;;;;;;8.87;1.97;;;;;;;1.81;100.00;98755.59;4173513;28;20237;-70
2022/01/28 06:14:17;;;;;;;5.97;2.47;;;;;;;1.75;100.00;98765.75;4172108;28;20325;-71
2022/01/28 06:16:45;;;;;;;4.43;1.43;;;;;;;1.76;100.00;98767.44;4181973;28;25926;-71
2022/01/28 06:19:12;;;;;;;4.90;2.00;;;;;;;1.72;100.00;98772.09;4172449;28;20274;-71
2022/01/28 06:21:38;;;;;;;6.87;2.03;;;;;;;1.69;100.00;98781.06;4175064;28;20234;-74
2022/01/28 06:24:05;;;;;;;5.20;2.03;;;;;;;1.71;100.00;98773.06;4172432;28;20236;-70
2022/01/28 06:26:32;;;;;;;5.27;2.20;;;;;;;1.63;100.00;98768.44;4180741;28;20350;-69
2022/01/28 06:28:59;;;;;;;9.03;2.13;;;;;;;1.65;100.00;98778.81;4168852;28;20297;-71
2022/01/28 06:31:25;;;;;;;7.20;2.30;;;;;;;1.67;100.00;98782.16;4173330;28;20234;-67
2022/01/28 06:33:52;;;;;;;5.30;2.43;;;;;;;1.68;100.00;98792.50;4176021;28;20279;-70
2022/01/28 06:36:21;;;;;;;5.67;2.20;;;;;;;1.72;100.00;98790.47;4165281;28;20233;-69
2022/01/28 06:38:48;;;;;;;6.70;2.47;;;;;;;1.76;100.00;98780.56;4173050;28;21244;-72
2022/01/28 06:41:15;;;;;;;8.43;2.50;;;;;;;1.71;100.00;98801.91;4175496;28;21582;-69
2022/01/28 06:43:41;;;;;;;7.63;2.70;;;;;;;1.74;100.00;98801.66;4184343;28;20246;-69
2022/01/28 06:46:08;;;;;;;7.77;2.83;;;;;;;1.72;100.00;98805.38;4170432;28;22111;-72
2022/01/28 06:48:35;;;;;;;4.37;2.43;;;;;;;1.72;100.00;98805.38;4200015;28;20249;-70
2022/01/28 06:51:01;;;;;;;4.83;2.20;;;;;;;1.81;100.00;98815.91;4190489;28;20301;-72
2022/01/28 06:53:28;;;;;;;5.70;2.37;;;;;;;1.86;100.00;98820.75;4182267;28;21174;-68
2022/01/28 06:55:55;;;;;;;7.73;2.27;;;;;;;1.82;100.00;98825.41;4169973;28;21733;-71
2022/01/28 06:58:21;;;;;;;4.67;2.30;;;;;;;1.81;100.00;98822.94;4195460;28;23596;-72
2022/01/28 07:00:48;;;;;;;5.97;2.20;;;;;;;1.83;100.00;98824.47;4176599;28;20316;-70
2022/01/28 07:03:15;;;;;;;6.33;1.90;;;;;;;1.82;100.00;98832.47;4175630;28;22558;-70
2022/01/28 07:05:42;;;;;;;4.80;2.10;;;;;;;1.80;100.00;98829.13;4181427;28;20253;-71
2022/01/28 07:08:09;;;;;;;7.37;2.20;;;;;;;1.81;100.00;98843.94;4172986;28;20299;-68
2022/01/28 07:10:35;;;;;;;5.47;2.17;;;;;;;1.83;100.00;98844.63;4178642;28;20222;-71
2022/01/28 07:13:04;;;;;;;4.60;2.10;;;;;;;1.78;100.00;98858.13;4154128;28;20333;-69
2022/01/28 07:15:31;;;;;;;4.83;2.30;;;;;;;1.78;100.00;98854.66;4169404;28;20229;-69
2022/01/28 07:18:02;;;;;;;3.93;2.27;;;;;;;1.75;100.00;98873.28;4185465;28;20242;-69
2022/01/28 07:20:30;;;;;;;8.90;2.97;;;;;;;1.78;100.00;98865.16;4179927;28;20243;-69
2022/01/28 07:22:57;;;;;;;9.23;3.07;;;;;;;1.79;100.00;98878.13;4199744;28;20229;-69
2022/01/28 07:25:24;;;;;;;6.47;2.93;;;;;;;1.79;100.00;98870.28;4164787;28;20982;-71
2022/01/28 07:27:51;;;;;;;6.30;2.27;;;;;;;1.82;100.00;98884.91;4171251;28;20228;-72
2022/01/28 07:30:17;;;;;;;3.80;2.17;;;;;;;1.85;100.00;98889.91;4165606;28;20226;-73
2022/01/28 07:32:44;;;;;;;4.43;2.37;;;;;;;1.84;100.00;98890.88;4164657;28;23765;-71
2022/01/28 07:35:11;;;;;;;7.23;2.60;;;;;;;1.83;100.00;98899.72;4173375;28;20241;-73
2022/01/28 07:37:38;;;;;;;7.00;2.70;;;;;;;1.78;100.00;98905.34;4174216;28;20226;-71
2022/01/28 07:40:06;;;;;;;7.33;2.43;;;;;;;1.79;100.00;98912.22;4172657;28;21193;-69
2022/01/28 07:42:35;;;;;;;7.13;2.50;;;;;;;1.78;100.00;98915.81;4173194;28;20225;-73
2022/01/28 07:45:03;;;;;;;6.37;2.93;;;;;;;1.80;100.00;98918.31;4179899;28;20233;-72
2022/01/28 07:47:30;;;;;;;5.90;2.30;;;;;;;1.78;100.00;98904.47;4177505;28;20346;-69
2022/01/28 07:49:57;;;;;;;6.13;2.70;;;;;;;1.82;100.00;98929.50;4177917;28;20236;-67
2022/01/28 07:52:23;;;;;;;5.67;2.37;;;;;;;1.81;100.00;98941.78;4188945;28;20304;-67
2022/01/28 07:54:50;;;;;;;5.23;2.43;;;;;;;1.75;100.00;98944.06;4173007;28;20238;-71
2022/01/28 07:57:17;;;;;;;4.40;2.13;;;;;;;1.79;100.00;98958.63;4183552;28;20248;-70
2022/01/28 07:59:44;;;;;;;4.13;1.87;;;;;;;1.74;100.00;98963.41;4176013;28;20296;-70
2022/01/28 08:02:10;;;;;;;4.97;2.10;;;;;;;1.75;100.00;98973.75;4154392;28;23420;-67
2022/01/28 08:04:38;;;;;;;3.77;1.70;;;;;;;1.72;100.00;98981.03;4171309;28;20234;-70
2022/01/28 08:07:05;;;;;;;3.10;1.50;;;;;;;1.67;100.00;98976.19;4186679;28;20251;-68
2022/01/28 08:09:32;;;;;;;4.53;2.17;;;;;;;1.66;100.00;98979.75;4167704;28;21740;-70
2022/01/28 08:11:59;;;;;;;4.80;1.40;;;;;;;1.73;100.00;98985.31;4190525;28;21424;-68
2022/01/28 08:14:26;;;;;;;3.43;1.40;;;;;;;1.76;100.00;98995.59;4169289;28;22869;-68
2022/01/28 08:16:53;;;;;;;2.87;1.13;;;;;;;1.68;100.00;98999.63;4176009;28;21211;-69
2022/01/28 08:19:19;;;;;;;2.53;1.50;;;;;;;1.61;100.00;99001.09;4172236;28;20236;-69
2022/01/28 08:21:46;;;;;;;2.70;1.17;;;;;;;1.62;100.00;99010.63;4180489;28;20656;-67
2022/01/28 08:24:13;;;;;;;2.43;1.20;;;;;;;1.63;100.00;99019.31;4171342;28;21408;-67
2022/01/28 08:26:39;;;;;;;1.60;1.07;;;;;;;1.65;100.00;99015.63;4175841;28;20252;-68
2022/01/28 08:29:06;;;;;;;2.80;1.20;;;;;;;1.65;100.00;99028.72;4188966;28;20233;-68
2022/01/28 08:31:34;;;;;;;3.10;1.03;;;;;;;1.60;100.00;99027.44;4158296;28;20262;-70
2022/01/28 08:34:01;;;;;;;1.57;1.00;;;;;;;1.64;100.00;99034.94;4175641;28;21753;-71
2022/01/28 08:36:28;;;;;;;2.30;1.10;;;;;;;1.68;100.00;99046.81;4183547;28;20244;-69
2022/01/28 08:38:55;;;;;;;1.93;1.10;;;;;;;1.63;100.00;99059.47;4157798;28;20745;-69
2022/01/28 08:41:23;;;;;;;2.90;1.07;;;;;;;1.66;100.00;99064.50;4164294;28;20237;-69
2022/01/28 08:43:51;;;;;;;1.77;0.90;;;;;;;1.66;100.00;99075.00;4192278;28;22885;-68
2022/01/28 08:46:18;;;;;;;1.60;1.00;;;;;;;1.61;100.00;99071.88;4164750;28;22355;-68
2022/01/28 08:48:45;;;;;;;1.37;0.80;;;;;;;1.64;100.00;99069.03;4172750;28;20244;-69
2022/01/28 08:51:12;;;;;;;1.73;0.93;;;;;;;1.63;100.00;99090.94;4190461;28;20233;-68
2022/01/28 08:53:39;;;;;;;1.57;0.90;;;;;;;1.63;100.00;99097.97;4174877;28;20379;-67
2022/01/28 08:56:06;;;;;;;2.60;1.07;;;;;;;1.64;100.00;99100.50;4175873;28;20236;-66
2022/01/28 08:58:33;;;;;;;1.43;0.80;;;;;;;1.62;100.00;99110.25;4164779;28;20250;-68
2022/01/28 09:01:00;;;;;;;2.23;1.33;;;;;;;1.65;100.00;99123.13;4168292;28;23084;-66
2022/01/28 09:03:29;;;;;;;1.97;0.93;;;;;;;1.66;100.00;99122.19;4175115;28;20310;-68
2022/01/28 09:05:57;;;;;;;1.97;1.00;;;;;;;1.60;100.00;99127.91;4183833;28;20240;-68
2022/01/28 09:08:23;;;;;;;2.23;0.80;;;;;;;1.67;100.00;99144.00;4182335;28;20246;-69
2022/01/28 09:10:58;;;;;;;1.73;1.00;;;;;;;1.66;100.00;99150.16;4166687;28;20241;-69
2022/01/28 09:13:29;;;;;;;1.30;0.80;;;;;;;1.63;100.00;99150.41;4165870;28;21822;-67
2022/01/28 09:15:57;;;;;;;2.73;0.93;;;;;;;1.57;100.00;99161.38;4169735;28;20657;-68
2022/01/28 09:18:24;;;;;;;3.50;0.90;;;;;;;1.59;100.00;99160.34;4174738;28;20244;-67
2022/01/28 09:20:51;;;;;;;1.83;0.60;;;;;;;1.65;100.00;99172.13;4175694;28;20304;-69
2022/01/28 09:23:18;;;;;;;2.37;1.10;;;;;;;1.63;100.00;99179.25;4173946;28;20550;-70
2022/01/28 09:25:45;;;;;;;4.83;1.53;;;;;;;1.65;100.00;99188.69;4184789;28;20231;-70
2022/01/28 09:28:12;;;;;;;2.83;1.23;;;;;;;1.65;100.00;99201.78;4170271;28;20340;-68
2022/01/28 09:30:39;;;;;;;1.57;0.93;;;;;;;1.67;100.00;99202.50;4178357;28;20334;-68
2022/01/28 09:33:06;;;;;;;2.00;1.10;;;;;;;1.62;100.00;99207.28;4164947;28;20280;-67
2022/01/28 09:35:34;;;;;;;1.80;1.00;;;;;;;1.65;100.00;99225.38;4172897;28;21333;-70
2022/01/28 09:38:01;;;;;;;3.70;1.50;;;;;;;1.67;100.00;99233.97;4177681;28;20706;-68
2022/01/28 09:40:27;;;;;;;2.37;1.27;;;;;;;1.66;100.00;99232.31;4170707;28;21947;-67
2022/01/28 09:42:54;;;;;;;3.70;1.80;;;;;;;1.65;100.00;99237.66;4187983;28;20843;-69
2022/01/28 09:45:23;;;;;;;2.27;1.40;;;;;;;1.75;100.00;99245.66;4171285;28;20285;-68
2022/01/28 09:47:53;;;;;;;2.53;1.10;;;;;;;1.67;100.00;99249.72;4187720;28;24067;-68
2022/01/28 09:50:22;;;;;;;2.50;1.27;;;;;;;1.65;100.00;99250.78;4178534;28;26506;-68
2022/01/28 09:52:50;;;;;;;2.97;1.17;;;;;;;1.72;100.00;99266.88;4166159;28;20339;-68
2022/01/28 09:55:18;;;;;;;5.53;1.07;;;;;;;1.74;100.00;99262.34;4166524;28;20238;-68
2022/01/28 09:57:47;;;;;;;3.40;1.80;;;;;;;1.79;100.00;99273.31;4178264;28;21308;-69
2022/01/28 10:00:14;;;;;;;3.27;1.20;;;;;;;1.77;100.00;99269.97;4190336;28;20638;-69
2022/01/28 10:02:53;;;;;;;3.47;1.33;;;;;;;1.76;100.00;99276.19;4178506;28;20846;-68
2022/01/28 10:05:25;;;;;;;1.87;1.00;;;;;;;1.75;100.00;99285.00;4195725;28;20491;-68
2022/01/28 10:08:19;;;;;;;2.43;1.13;;;;;;;1.75;100.00;99280.56;4171311;28;25381;-68
2022/01/28 10:11:14;;;;;;;2.60;1.07;;;;;;;1.75;100.00;99290.25;4170674;28;20230;-67
2022/01/28 10:13:46;;;;;;;2.70;1.17;;;;;;;1.75;100.00;99298.94;4180680;28;20234;-67
2022/01/28 10:16:22;;;;;;;1.67;0.90;;;;;;;1.77;100.00;99290.97;4177276;28;23045;-66
2022/01/28 10:18:53;;;;;;;1.97;1.10;;;;;;;1.78;100.00;99314.47;4176405;28;20233;-67
2022/01/28 10:21:21;;;;;;;2.13;1.07;;;;;;;1.77;100.00;99314.56;4168465;28;21730;-67
2022/01/28 10:24:14;;;;;;;2.10;1.30;;;;;;;1.82;100.00;99321.13;4173121;28;21297;-70
2022/01/28 10:26:52;;;;;;;1.97;1.13;;;;;;;1.80;100.00;99333.53;4158190;28;22144;-69
2022/01/28 10:29:22;;;;;;;3.10;1.50;;;;;;;1.86;100.00;99332.22;4164734;28;20236;-69
2022/01/28 10:31:50;;;;;;;4.13;1.70;;;;;;;1.81;100.00;99339.63;4185419;28;20229;-70
2022/01/28 10:34:20;;;;;;;3.00;1.00;;;;;;;1.85;100.00;99347.13;4183924;28;20230;-69
2022/01/28 10:36:48;;;;;;;1.73;1.10;;;;;;;1.96;100.00;99375.16;4199268;28;20242;-68
2022/01/28 10:39:24;;;;;;;6.67;1.50;;;;;;;2.03;99.43;99365.88;4177449;28;22702;-68
2022/01/28 10:41:56;;;;;;;3.23;1.13;;;;;;;2.05;99.00;99369.22;4181182;28;20662;-68
2022/01/28 10:44:24;;;;;;;2.47;1.03;;;;;;;2.07;98.75;99379.59;4163564;28;20234;-68
2022/01/28 10:46:59;;;;;;;2.87;1.30;;;;;;;2.10;97.93;99361.81;4170948;28;20796;-70
2022/01/28 10:49:33;;;;;;;3.13;1.17;;;;;;;2.14;98.09;99375.56;4161220;28;22706;-66
2022/01/28 10:52:09;;;;;;;2.37;1.27;;;;;;;2.15;97.45;99384.25;4163193;28;20372;-69
2022/01/28 10:54:36;;;;;;;2.63;1.53;;;;;;;2.17;98.20;99393.69;4186209;28;20229;-69
2022/01/28 10:57:08;;;;;;;3.03;1.37;;;;;;;2.21;97.85;99404.81;4171073;28;25470;-70
2022/01/28 10:59:38;;;;;;;5.53;1.50;;;;;;;2.22;97.13;99406.47;4162696;28;20558;-68
2022/01/28 11:02:05;;;;;;;2.60;1.00;;;;;;;2.26;96.40;99415.78;4165125;28;20244;-70
2022/01/28 11:04:33;;;;;;;3.17;1.20;;;;;;;2.22;95.09;99424.84;4176461;28;21035;-70
2022/01/28 11:07:01;;;;;;;2.93;1.13;;;;;;;2.18;95.08;99415.50;4173634;28;20249;-70
2022/01/28 11:09:30;;;;;;;3.33;1.30;;;;;;;2.22;95.42;99422.22;4171055;28;20706;-69
2022/01/28 11:11:57;;;;;;;2.53;1.20;;;;;;;2.17;94.26;99433.06;4173204;28;20997;-68
2022/01/28 11:14:25;;;;;;;3.10;1.20;;;;;;;2.28;94.17;99432.25;4171149;28;21751;-70
2022/01/28 11:16:52;;;;;;;3.07;1.20;;;;;;;2.40;93.74;99440.97;4162788;28;20233;-68
2022/01/28 11:19:21;;;;;;;2.83;1.07;;;;;;;2.40;92.32;99452.31;4173252;28;21051;-67
2022/01/28 11:22:14;;;;;;;2.83;1.30;;;;;;;2.42;91.61;99445.16;4165547;28;20630;-66
2022/01/28 11:25:15;;;;;;;2.93;1.30;;;;;;;2.43;90.82;99448.59;4169917;28;24892;-67
2022/01/28 11:27:46;;;;;;;2.90;1.33;;;;;;;2.39;90.91;99469.03;4177123;28;25461;-67
2022/01/28 11:30:28;;;;;;;2.80;1.30;;;;;;;2.32;91.88;99454.69;4184048;28;20233;-68
2022/01/28 11:33:00;;;;;;;2.67;1.10;;;;;;;2.21;92.71;99454.66;4192929;28;20245;-67
2022/01/28 11:35:30;;;;;;;3.63;1.43;;;;;;;2.18;92.42;99474.13;4171321;28;20415;-65
2022/01/28 11:38:03;;;;;;;2.27;1.10;;;;;;;2.23;93.15;99474.59;4166484;28;20244;-67
2022/01/28 11:40:44;;;;;;;5.00;1.50;;;;;;;2.18;92.74;99483.75;4172756;28;21563;-65
2022/01/28 11:43:22;;;;;;;3.07;1.30;;;;;;;2.25;93.35;99492.88;4172264;28;23588;-67
2022/01/28 11:46:09;;;;;;;4.40;1.50;;;;;;;2.30;92.87;99493.34;4180465;28;20289;-66
2022/01/28 11:48:51;;;;;;;4.53;1.40;;;;;;;2.36;92.51;99487.63;4165688;28;21486;-68
2022/01/28 11:51:22;;;;;;;4.13;1.60;;;;;;;2.40;92.13;99502.19;4198811;28;20241;-67
2022/01/28 11:54:00;;;;;;;4.27;1.27;;;;;;;2.29;93.05;99502.16;4180469;28;20237;-67
2022/01/28 11:56:29;;;;;;;5.83;1.57;;;;;;;2.19;93.52;99495.94;4142416;28;20238;-65
2022/01/28 11:59:09;;;;;;;4.27;1.87;;;;;;;2.13;95.06;99512.13;4181615;28;20832;-68
2022/01/28 12:01:39;;;;;;;1.97;1.40;;;;;;;2.22;95.45;99512.28;4192243;28;21322;-68
2022/01/28 12:04:29;;;;;;;5.77;1.53;;;;;;;2.22;94.58;99540.31;4173242;28;20241;-65
2022/01/28 12:07:17;;;;;;;6.03;1.40;;;;;;;2.27;95.03;99530.31;4190407;28;20764;-65
2022/01/28 12:09:49;;;;;;;2.37;1.30;;;;;;;2.35;94.58;99548.97;4165727;28;20662;-64
2022/01/28 12:12:20;;;;;;;3.20;1.20;;;;;;;2.52;94.20;99551.16;4170883;28;20277;-67
2022/01/28 12:14:49;;;;;;;1.90;1.17;;;;;;;2.45;90.62;99544.69;4175250;28;20230;-67
2022/01/28 12:17:38;;;;;;;3.27;1.40;;;;;;;2.32;90.57;99549.19;4170909;28;20226;-66
2022/01/28 12:20:39;;;;;;;3.63;1.30;;;;;;;2.39;90.10;99560.06;4169543;28;21294;-67
2022/01/28 12:23:08;;;;;;;3.20;1.30;;;;;;;2.31;89.70;99563.25;4174670;28;20307;-67
2022/01/28 12:25:35;;;;;;;2.67;1.13;;;;;;;2.20;88.75;99563.22;4176071;28;20229;-69
2022/01/28 12:28:29;;;;;;;4.57;1.03;;;;;;;2.27;88.98;99572.31;4189740;28;20240;-67
2022/01/28 12:31:19;;;;;;;3.10;1.17;;;;;;;2.26;88.42;99566.22;4194628;28;20221;-68
2022/01/28 12:33:52;;;;;;;4.33;1.37;;;;;;;2.32;87.12;99568.41;4171231;28;22315;-68
2022/01/28 12:36:28;;;;;;;5.20;1.20;;;;;;;2.30;87.04;99577.34;4161326;28;20233;-67
2022/01/28 12:39:06;;;;;;;3.63;1.27;;;;;;;2.30;86.09;99578.19;4181952;28;20240;-70
2022/01/28 12:41:42;;;;;;;4.50;1.53;;;;;;;2.36;85.82;99586.56;4193946;28;20289;-68
2022/01/28 12:44:09;;;;;;;3.47;1.27;;;;;;;2.29;85.96;99583.53;4160184;28;22190;-68
2022/01/28 12:46:39;;;;;;;5.20;1.20;;;;;;;2.33;85.50;99595.50;4181082;28;20712;-68
2022/01/28 12:49:08;;;;;;;3.57;1.00;;;;;;;2.30;85.70;99596.56;4174560;28;20246;-67
2022/01/28 12:51:39;;;;;;;2.20;1.20;;;;;;;2.26;85.73;99602.16;4163023;28;20238;-68
2022/01/28 12:54:06;;;;;;;2.43;1.13;;;;;;;2.26;84.64;99607.41;4178523;28;20279;-67
2022/01/28 12:56:40;;;;;;;3.37;1.27;;;;;;;2.33;85.40;99609.44;4176647;28;20234;-69
2022/01/28 12:59:08;;;;;;;2.47;0.97;;;;;;;2.33;84.39;99613.88;4169830;28;20635;-65
2022/01/28 13:01:35;;;;;;;2.67;1.20;;;;;;;2.32;84.29;99623.53;4176518;28;20361;-69
2022/01/28 13:04:13;;;;;;;5.33;1.23;;;;;;;2.37;84.24;99628.44;4172893;28;26285;-70
2022/01/28 13:08:24;;;;;;;2.67;1.03;;;;;;;2.38;83.75;99627.50;4164381;28;20229;-67
2022/01/28 13:09:32;;;;;;;3.47;1.10;;;;;;;2.37;83.56;99636.34;4169920;28;20264;-69
2022/01/28 13:12:01;;;;;;;3.10;1.27;;;;;;;2.47;83.52;99641.75;4191259;28;20237;-66
2022/01/28 13:14:30;;;;;;;5.00;1.20;;;;;;;2.43;83.63;99638.47;4198579;28;20240;-66
2022/01/28 13:17:03;;;;;;;1.73;1.00;;;;;;;2.44;82.73;99650.69;4155678;28;20245;-67